Time;durP1;ratioP1;P1;durP2;ratioP2;P2;SDS_P1;SDS_P2;PMS_P1;PMS_P2;Temp;Humidity;BMP_temperature;BMP_pressure;BME280_temperature;BME280_humidity;BME280_pressure;Samples;Min_cycle;Max_cycle;Signal;HPM_P1;HPM_P2
2022/04/22 00:02:22;;;;;;;4.93;2.50;;;11.70;86.80;;;;;;5072679;28;20442;-66
2022/04/22 00:04:48;;;;;;;7.22;3.13;;;11.60;86.30;;;;;;5072695;28;20101;-66
2022/04/22 00:07:14;;;;;;;4.38;2.30;;;11.60;85.90;;;;;;5072705;28;20036;-65
2022/04/22 00:09:39;;;;;;;7.28;2.78;;;11.60;85.60;;;;;;5073116;28;20044;-65
2022/04/22 00:12:06;;;;;;;3.25;2.05;;;11.60;86.40;;;;;;5072724;28;20029;-65
2022/04/22 00:14:32;;;;;;;5.15;2.55;;;11.50;87.40;;;;;;5073406;28;20040;-65
2022/04/22 00:16:57;;;;;;;4.47;2.40;;;11.40;87.70;;;;;;5062424;28;20427;-65
2022/04/22 00:19:23;;;;;;;4.20;2.40;;;11.40;87.30;;;;;;5065707;28;20117;-66
2022/04/22 00:21:49;;;;;;;5.00;2.13;;;11.40;88.10;;;;;;5071240;28;20064;-66
2022/04/22 00:24:16;;;;;;;4.50;2.80;;;11.30;88.00;;;;;;5074126;28;20079;-66
2022/04/22 00:26:42;;;;;;;3.38;2.28;;;11.40;87.90;;;;;;5074135;28;20033;-66
2022/04/22 00:29:08;;;;;;;4.07;2.00;;;11.60;87.10;;;;;;5073816;28;20085;-66
2022/04/22 00:31:34;;;;;;;6.88;2.20;;;11.60;87.40;;;;;;5066590;28;20041;-66
2022/04/22 00:33:59;;;;;;;4.00;2.55;;;11.50;88.00;;;;;;5054041;28;20465;-66
2022/04/22 00:36:25;;;;;;;4.45;2.60;;;11.40;88.10;;;;;;5053980;28;20045;-66
2022/04/22 00:38:51;;;;;;;7.80;2.45;;;11.30;88.70;;;;;;5053960;28;20037;-66
2022/04/22 00:41:18;;;;;;;5.70;2.25;;;11.30;89.20;;;;;;5053999;28;20060;-66
2022/04/22 00:43:48;;;;;;;5.32;2.15;;;11.20;89.60;;;;;;5053774;28;20035;-66
2022/04/22 00:46:13;;;;;;;2.85;2.20;;;11.10;89.40;;;;;;5053666;28;20131;-67
2022/04/22 00:48:40;;;;;;;5.93;2.10;;;11.00;89.40;;;;;;5054000;28;20120;-66
2022/04/22 00:51:07;;;;;;;6.18;2.63;;;11.00;89.10;;;;;;5054080;28;20124;-66
2022/04/22 00:53:40;;;;;;;5.80;2.60;;;11.00;89.00;;;;;;5053776;28;20037;-66
2022/04/22 00:56:08;;;;;;;4.20;2.83;;;11.10;88.70;;;;;;5053839;28;20442;-66
2022/04/22 00:58:40;;;;;;;10.60;2.67;;;11.30;95.30;;;;;;5053647;28;20508;-66
2022/04/22 01:01:06;;;;;;;4.60;3.08;;;11.30;99.90;;;;;;5053622;28;20143;-66
2022/04/22 01:03:32;;;;;;;4.45;2.50;;;11.40;94.70;;;;;;5053511;28;20407;-66
2022/04/22 01:11:32;;;;;;;7.78;3.40;;;11.40;98.20;;;;;;5053519;28;20502;-66
2022/04/22 01:13:59;;;;;;;4.65;3.20;;;11.50;99.20;;;;;;5053314;28;20032;-65
2022/04/22 01:16:25;;;;;;;7.90;3.83;;;11.50;98.90;;;;;;5053306;28;20492;-66
2022/04/22 01:18:52;;;;;;;6.13;3.97;;;11.60;98.90;;;;;;5062965;28;20134;-66
2022/04/22 01:21:18;;;;;;;6.60;3.85;;;11.70;99.00;;;;;;5072560;28;20071;-66
2022/04/22 01:23:44;;;;;;;6.97;3.90;;;11.70;98.90;;;;;;5071726;28;20036;-66
2022/04/22 01:26:12;;;;;;;7.30;3.47;;;11.60;99.00;;;;;;5071752;28;20039;-66
2022/04/22 01:28:38;;;;;;;7.07;4.13;;;11.60;95.60;;;;;;5071466;28;20071;-66
2022/04/22 01:31:04;;;;;;;9.57;3.88;;;11.60;96.60;;;;;;5071954;28;20052;-66
2022/04/22 01:33:30;;;;;;;5.50;3.55;;;11.40;96.20;;;;;;5071916;28;20029;-65
2022/04/22 01:35:56;;;;;;;5.30;3.17;;;11.40;95.80;;;;;;5071907;28;20040;-66
2022/04/22 01:38:22;;;;;;;6.07;3.90;;;11.50;95.50;;;;;;5072265;28;20098;-66
2022/04/22 01:40:48;;;;;;;7.43;3.60;;;11.70;95.10;;;;;;5072820;28;20113;-66
2022/04/22 01:43:13;;;;;;;5.80;3.08;;;11.50;95.20;;;;;;5072742;28;20040;-66
2022/04/22 01:45:39;;;;;;;6.93;3.25;;;11.50;95.30;;;;;;5072586;28;20045;-66
2022/04/22 01:48:05;;;;;;;5.63;2.63;;;11.30;95.40;;;;;;5072590;28;20096;-66
2022/04/22 01:50:31;;;;;;;3.42;2.75;;;10.80;88.80;;;;;;5072546;28;20119;-66
2022/04/22 01:52:56;;;;;;;9.65;3.03;;;10.70;91.10;;;;;;5072730;28;20041;-66
2022/04/22 01:55:23;;;;;;;9.35;3.47;;;10.90;90.20;;;;;;5072950;28;20047;-66
2022/04/22 01:57:49;;;;;;;7.15;3.75;;;11.10;91.60;;;;;;5072909;28;20043;-67
2022/04/22 02:00:14;;;;;;;5.63;3.90;;;11.10;87.40;;;;;;5072353;28;20053;-66
2022/04/22 02:02:40;;;;;;;8.45;3.90;;;11.20;88.00;;;;;;5072473;28;20522;-66
2022/04/22 02:05:06;;;;;;;8.05;3.58;;;11.20;88.00;;;;;;5072954;28;20036;-66
2022/04/22 02:07:32;;;;;;;4.85;3.60;;;11.20;88.60;;;;;;5072954;28;20036;-66
2022/04/22 02:09:58;;;;;;;5.57;3.22;;;11.00;89.10;;;;;;5072501;28;20044;-66
2022/04/22 02:12:24;;;;;;;6.43;3.45;;;10.80;88.70;;;;;;5072604;28;20033;-66
2022/04/22 02:14:50;;;;;;;4.88;3.67;;;11.00;88.40;;;;;;5072516;28;20046;-66
2022/04/22 02:17:16;;;;;;;4.97;3.67;;;11.10;88.20;;;;;;5072544;28;20115;-66
2022/04/22 02:19:42;;;;;;;5.47;3.75;;;11.10;88.30;;;;;;5072620;28;20044;-66
2022/04/22 02:22:08;;;;;;;6.50;3.85;;;11.10;88.30;;;;;;5072595;28;20072;-66
2022/04/22 02:24:33;;;;;;;7.72;3.67;;;11.10;88.40;;;;;;5071506;28;20044;-66
2022/04/22 02:29:43;;;;;;;5.53;3.72;;;10.80;89.80;;;;;;5072220;28;20082;-66
2022/04/22 02:32:09;;;;;;;5.07;3.33;;;10.80;90.20;;;;;;5072207;28;20040;-66
2022/04/22 02:34:35;;;;;;;7.75;3.55;;;10.90;90.00;;;;;;5072642;28;20116;-66
2022/04/22 02:37:01;;;;;;;5.90;3.95;;;10.90;89.40;;;;;;5072229;28;20522;-66
2022/04/22 02:39:27;;;;;;;8.45;4.03;;;10.90;88.90;;;;;;5072692;28;20546;-65
2022/04/22 02:47:20;;;;;;;5.68;3.80;;;10.60;90.30;;;;;;5076028;28;20450;-66
2022/04/22 02:49:46;;;;;;;4.70;3.50;;;10.40;90.40;;;;;;5075995;28;20052;-66
2022/04/22 02:52:13;;;;;;;6.20;4.05;;;10.40;90.30;;;;;;5076025;28;20029;-66
2022/04/22 02:54:39;;;;;;;9.73;3.70;;;10.40;90.50;;;;;;5075925;28;20123;-66
2022/04/22 02:57:06;;;;;;;6.43;3.97;;;10.30;90.50;;;;;;5075821;28;20131;-66
2022/04/22 02:59:32;;;;;;;10.68;4.40;;;10.30;90.50;;;;;;5075819;28;20567;-66
2022/04/22 03:01:57;;;;;;;6.93;4.35;;;10.40;90.30;;;;;;5075788;28;20040;-67
2022/04/22 03:04:25;;;;;;;4.95;3.72;;;10.40;90.60;;;;;;5075702;28;20461;-67
2022/04/22 03:06:51;;;;;;;8.40;4.28;;;10.20;91.20;;;;;;5075909;28;20043;-66
2022/04/22 03:09:17;;;;;;;8.30;3.83;;;10.10;91.20;;;;;;5075711;28;20044;-66
2022/04/22 03:11:43;;;;;;;6.32;3.85;;;10.10;90.90;;;;;;5075684;28;20037;-66
2022/04/22 03:14:09;;;;;;;7.80;4.65;;;10.10;90.80;;;;;;5075515;28;20040;-66
2022/04/22 03:16:35;;;;;;;12.00;4.20;;;10.20;90.90;;;;;;5075298;28;20047;-66
2022/04/22 03:19:01;;;;;;;6.43;4.10;;;10.20;91.00;;;;;;5075133;28;20048;-66
2022/04/22 03:21:27;;;;;;;8.25;3.72;;;10.20;91.00;;;;;;5074992;28;20440;-66
2022/04/22 03:23:53;;;;;;;7.00;4.10;;;10.20;91.20;;;;;;5075143;28;20068;-66
2022/04/22 03:26:19;;;;;;;7.43;4.55;;;10.10;91.30;;;;;;5075066;28;20084;-67
2022/04/22 03:28:46;;;;;;;7.57;4.53;;;10.10;91.20;;;;;;5075292;28;20078;-67
2022/04/22 03:31:15;;;;;;;10.05;4.13;;;10.10;92.70;;;;;;5075222;28;20046;-68
2022/04/22 03:33:41;;;;;;;6.63;4.90;;;10.40;92.70;;;;;;5075062;28;20496;-67
2022/04/22 03:36:06;;;;;;;8.63;4.40;;;10.20;92.70;;;;;;5075097;28;20045;-67
2022/04/22 03:38:32;;;;;;;9.30;4.20;;;10.00;92.30;;;;;;5072529;28;20703;-67
2022/04/22 03:40:58;;;;;;;9.93;4.95;;;10.00;93.90;;;;;;5054711;28;20041;-67
2022/04/22 03:43:25;;;;;;;10.48;4.70;;;9.90;91.70;;;;;;5054893;28;20106;-66
2022/04/22 03:45:51;;;;;;;10.23;4.43;;;9.90;91.90;;;;;;5054692;28;20137;-67
2022/04/22 03:48:16;;;;;;;7.30;4.50;;;9.90;92.00;;;;;;5036796;28;20556;-66
2022/04/22 03:50:43;;;;;;;9.77;5.30;;;9.90;92.10;;;;;;5053920;28;20041;-66
2022/04/22 03:53:12;;;;;;;8.15;4.88;;;9.80;92.00;;;;;;5054656;28;20045;-66
2022/04/22 03:55:39;;;;;;;7.63;4.78;;;9.80;92.20;;;;;;5054716;28;20052;-66
2022/04/22 03:58:12;;;;;;;10.85;4.85;;;9.90;92.20;;;;;;5054710;28;20805;-66
2022/04/22 04:00:45;;;;;;;9.18;5.03;;;9.90;92.30;;;;;;5054484;28;20053;-67
2022/04/22 04:03:14;;;;;;;9.57;4.50;;;9.80;92.00;;;;;;5054581;28;20484;-67
2022/04/22 04:05:46;;;;;;;9.70;4.25;;;9.70;92.10;;;;;;5054688;28;20044;-66
2022/04/22 04:08:12;;;;;;;6.95;4.43;;;9.80;92.20;;;;;;5054641;28;20124;-66
2022/04/22 04:16:06;;;;;;;6.35;4.25;;;10.00;92.00;;;;;;5054509;28;20227;-66
2022/04/22 04:18:34;;;;;;;8.02;5.07;;;10.00;92.20;;;;;;5054295;28;20162;-66
2022/04/22 04:23:47;;;;;;;9.05;5.13;;;10.10;91.90;;;;;;5051494;28;20198;-66
2022/04/22 04:26:15;;;;;;;8.43;5.10;;;10.00;91.60;;;;;;5063368;28;20495;-65
2022/04/22 04:28:41;;;;;;;9.90;5.03;;;;;;;;;;5073209;28;20097;-67
2022/04/22 04:31:07;;;;;;;6.22;4.25;;;9.80;92.30;;;;;;5073911;28;20044;-67
2022/04/22 04:33:34;;;;;;;5.95;4.57;;;9.50;93.00;;;;;;5073876;28;20048;-67
2022/04/22 04:36:00;;;;;;;6.05;4.30;;;9.50;93.40;;;;;;5073753;28;20040;-66
2022/04/22 04:38:27;;;;;;;8.13;4.43;;;9.10;93.60;;;;;;5073634;28;20040;-66
2022/04/22 04:40:53;;;;;;;8.98;4.72;;;9.10;93.80;;;;;;5073776;28;20075;-66
2022/04/22 04:43:19;;;;;;;8.82;4.40;;;9.00;94.10;;;;;;5073657;28;20040;-66
2022/04/22 04:45:45;;;;;;;11.40;5.05;;;8.80;94.10;;;;;;5073507;28;20043;-66
2022/04/22 04:48:12;;;;;;;13.35;4.68;;;8.90;94.20;;;;;;5073676;28;20032;-66
2022/04/22 04:50:43;;;;;;;7.03;4.28;;;9.00;94.10;;;;;;5073606;28;20063;-66
2022/04/22 04:53:09;;;;;;;7.68;4.60;;;8.90;94.40;;;;;;5073504;28;20039;-66
2022/04/22 04:55:35;;;;;;;6.10;4.65;;;9.00;94.50;;;;;;5073621;28;20438;-66
2022/04/22 04:58:01;;;;;;;8.50;4.53;;;9.00;94.30;;;;;;5073371;28;20048;-66
2022/04/22 05:00:26;;;;;;;6.05;4.55;;;9.00;94.30;;;;;;5073535;28;20167;-66
2022/04/22 05:02:54;;;;;;;10.95;6.07;;;9.00;94.60;;;;;;5072658;28;20033;-66
2022/04/22 05:05:20;;;;;;;9.10;5.40;;;9.00;94.50;;;;;;5073259;28;20078;-66
2022/04/22 05:07:48;;;;;;;8.00;4.93;;;8.90;94.90;;;;;;5073218;28;20559;-66
2022/04/22 05:10:15;;;;;;;9.80;5.65;;;8.80;95.10;;;;;;5073464;28;20044;-67
2022/04/22 05:12:41;;;;;;;7.72;4.97;;;8.80;95.20;;;;;;5073338;28;20043;-66
2022/04/22 05:15:08;;;;;;;10.98;4.78;;;8.90;95.00;;;;;;5073167;28;20032;-67
2022/04/22 05:17:34;;;;;;;10.15;5.35;;;8.90;95.10;;;;;;5073335;28;20040;-66
2022/04/22 05:20:00;;;;;;;7.15;4.60;;;8.90;95.00;;;;;;5072795;28;20052;-66
2022/04/22 05:22:26;;;;;;;6.13;4.57;;;8.70;95.80;;;;;;5073076;28;20401;-67
2022/04/22 05:24:52;;;;;;;11.48;7.22;;;8.50;96.30;;;;;;5072977;28;20040;-67
2022/04/22 05:27:18;;;;;;;7.10;5.18;;;8.70;95.80;;;;;;5072961;28;20210;-66
2022/04/22 05:32:36;;;;;;;7.45;4.88;;;9.00;95.60;;;;;;5070722;28;20075;-66
2022/04/22 05:35:04;;;;;;;8.63;5.80;;;8.70;96.60;;;;;;5072997;28;20049;-66
2022/04/22 05:37:51;;;;;;;7.60;5.65;;;8.70;96.60;;;;;;5073052;28;20079;-66
2022/04/22 05:40:19;;;;;;;10.05;5.13;;;9.20;96.20;;;;;;5059124;28;20057;-67
2022/04/22 05:42:46;;;;;;;13.48;5.75;;;9.00;98.10;;;;;;5072940;28;20041;-67
2022/04/22 05:45:13;;;;;;;14.75;5.47;;;9.00;96.90;;;;;;5073071;28;20059;-67
2022/04/22 05:47:40;;;;;;;7.32;5.32;;;9.40;98.50;;;;;;5069652;28;20052;-66
2022/04/22 05:50:08;;;;;;;6.50;5.03;;;9.60;95.80;;;;;;5072998;28;20044;-66
2022/04/22 05:52:35;;;;;;;9.75;5.05;;;9.80;95.40;;;;;;5072920;28;20040;-66
2022/04/22 05:55:03;;;;;;;10.27;6.00;;;9.70;95.80;;;;;;5072427;28;20047;-65
2022/04/22 05:57:32;;;;;;;7.95;5.25;;;9.70;95.90;;;;;;5072488;28;20488;-66
2022/04/22 05:59:59;;;;;;;7.60;5.13;;;9.80;96.30;;;;;;5072456;28;20056;-66
2022/04/22 06:02:26;;;;;;;7.03;5.18;;;10.10;96.00;;;;;;5072586;28;20082;-66
2022/04/22 06:04:52;;;;;;;6.95;4.70;;;10.30;96.00;;;;;;5072572;28;20044;-67
2022/04/22 06:07:19;;;;;;;9.38;5.68;;;10.50;95.40;;;;;;5072575;28;20123;-66
2022/04/22 06:12:29;;;;;;;8.25;5.30;;;10.30;96.30;;;;;;5072845;28;20056;-66
2022/04/22 06:14:59;;;;;;;6.88;5.10;;;10.20;96.40;;;;;;5075468;28;20523;-66
2022/04/22 06:17:27;;;;;;;8.27;5.43;;;10.30;96.20;;;;;;5076897;28;20041;-67
2022/04/22 06:19:53;;;;;;;9.90;4.88;;;10.70;99.30;;;;;;5076533;28;20062;-66
2022/04/22 06:22:19;;;;;;;14.27;5.20;;;11.00;95.60;;;;;;5076566;28;20531;-66
2022/04/22 06:24:45;;;;;;;13.50;5.57;;;11.50;95.20;;;;;;5076160;28;20041;-66
2022/04/22 06:27:10;;;;;;;7.13;5.05;;;12.00;94.00;;;;;;5076120;28;20036;-66
2022/04/22 06:29:37;;;;;;;11.75;5.15;;;12.30;93.40;;;;;;5076438;28;20040;-66
2022/04/22 06:32:04;;;;;;;7.78;4.95;;;12.10;93.30;;;;;;5076455;28;20078;-66
2022/04/22 06:34:30;;;;;;;9.07;5.07;;;12.60;98.00;;;;;;5073179;28;20523;-67
2022/04/22 06:36:56;;;;;;;10.80;5.15;;;12.70;99.90;;;;;;5056632;28;20037;-67
2022/04/22 06:39:22;;;;;;;7.25;4.60;;;12.90;99.90;;;;;;5056175;28;20057;-67
2022/04/22 06:47:18;;;;;;;8.27;4.55;;;13.20;99.90;;;;;;5056088;28;20044;-68
2022/04/22 06:49:44;;;;;;;7.05;4.10;;;13.20;96.50;;;;;;5056100;28;20047;-67
2022/04/22 06:52:10;;;;;;;6.88;4.70;;;13.20;95.90;;;;;;5056170;28;20041;-67
2022/04/22 06:54:36;;;;;;;6.57;4.25;;;13.30;96.00;;;;;;5055945;28;20055;-67
2022/04/22 06:57:03;;;;;;;5.10;4.13;;;13.40;95.70;;;;;;5063480;28;20365;-67
2022/04/22 06:59:31;;;;;;;6.80;4.38;;;13.40;95.20;;;;;;5075773;28;20078;-66
2022/04/22 07:01:57;;;;;;;9.52;4.32;;;13.30;95.40;;;;;;5075715;28;20121;-66
2022/04/22 07:04:24;;;;;;;10.27;4.13;;;13.20;95.90;;;;;;5075908;28;20040;-66
2022/04/22 07:06:51;;;;;;;7.30;4.20;;;13.00;95.40;;;;;;5075763;28;20036;-66
2022/04/22 07:09:17;;;;;;;7.03;4.07;;;13.10;95.40;;;;;;5075630;28;20041;-67
2022/04/22 07:11:44;;;;;;;5.85;3.83;;;13.20;95.60;;;;;;5075761;28;20050;-66
2022/04/22 07:14:11;;;;;;;7.38;3.88;;;13.00;95.00;;;;;;5075588;28;20047;-67
2022/04/22 07:16:44;;;;;;;5.28;4.03;;;12.90;95.00;;;;;;5075607;28;20048;-66
2022/04/22 07:19:10;;;;;;;9.48;4.20;;;13.00;95.40;;;;;;5075476;28;20036;-67
2022/04/22 07:21:36;;;;;;;7.25;4.28;;;13.40;95.60;;;;;;5075475;28;20135;-66
2022/04/22 07:24:02;;;;;;;7.85;4.00;;;13.50;95.60;;;;;;5075326;28;20115;-66
2022/04/22 07:26:32;;;;;;;16.50;4.55;;;13.90;95.40;;;;;;5074585;28;20043;-66
2022/04/22 07:29:01;;;;;;;6.90;4.13;;;;;;;;;;5073994;28;20059;-67
2022/04/22 07:31:31;;;;;;;6.38;4.18;;;14.50;99.90;;;;;;5075382;28;20113;-67
2022/04/22 07:33:56;;;;;;;7.10;3.88;;;14.40;95.90;;;;;;5075501;28;20442;-66
2022/04/22 07:36:22;;;;;;;8.60;4.60;;;14.20;95.50;;;;;;5075127;28;20052;-67
2022/04/22 07:38:48;;;;;;;5.68;3.85;;;14.30;95.60;;;;;;5074604;28;20051;-67
2022/04/22 07:41:18;;;;;;;9.40;4.85;;;14.40;95.50;;;;;;5074259;28;20105;-67
2022/04/22 07:46:48;;;;;;;10.75;4.25;;;;;;;;;;5072830;28;20059;-67
2022/04/22 07:49:15;;;;;;;13.23;4.82;;;;;;;;;;5073015;28;20621;-67
2022/04/22 07:51:41;;;;;;;5.18;4.15;;;15.20;99.90;;;;;;5072714;28;20041;-66
2022/04/22 07:54:12;;;;;;;10.52;5.32;;;15.20;94.40;;;;;;5073061;28;20040;-66
2022/04/22 07:56:38;;;;;;;10.95;4.78;;;15.20;94.40;;;;;;5072990;28;20052;-67
2022/04/22 07:59:03;;;;;;;10.25;4.70;;;15.40;93.80;;;;;;5073011;28;20097;-67
2022/04/22 08:01:30;;;;;;;6.20;4.55;;;;;;;;;;5074050;28;20138;-68
2022/04/22 08:03:58;;;;;;;4.85;4.05;;;15.80;93.80;;;;;;5072208;28;20116;-68
2022/04/22 08:06:24;;;;;;;5.43;3.95;;;15.60;94.30;;;;;;5072278;28;20056;-68
2022/04/22 08:08:49;;;;;;;5.70;4.30;;;15.90;93.20;;;;;;5073746;28;20097;-68
2022/04/22 08:11:15;;;;;;;9.38;3.92;;;16.00;93.40;;;;;;5073638;28;20209;-67
2022/04/22 08:13:41;;;;;;;9.30;4.25;;;15.70;93.30;;;;;;5072513;28;20539;-69
2022/04/22 08:16:07;;;;;;;7.45;4.68;;;16.00;93.30;;;;;;5073433;28;20052;-67
2022/04/22 08:18:33;;;;;;;11.23;4.75;;;15.90;92.80;;;;;;5072933;28;20119;-68
2022/04/22 08:20:59;;;;;;;12.80;4.20;;;16.10;92.10;;;;;;5055062;28;20045;-67
2022/04/22 08:23:26;;;;;;;8.43;4.55;;;16.40;92.60;;;;;;5065329;28;20040;-67
2022/04/22 08:25:52;;;;;;;7.60;4.43;;;15.80;93.00;;;;;;5071774;28;20051;-67
2022/04/22 08:28:17;;;;;;;7.50;4.57;;;16.10;92.70;;;;;;5071973;28;20036;-67
2022/04/22 08:30:43;;;;;;;7.78;4.43;;;15.90;92.10;;;;;;5072186;28;20044;-67
2022/04/22 08:33:09;;;;;;;8.40;4.68;;;16.30;92.90;;;;;;5073475;28;20047;-67
2022/04/22 08:35:38;;;;;;;5.60;4.13;;;16.60;92.50;;;;;;5072755;28;20044;-66
2022/04/22 08:38:07;;;;;;;5.85;4.65;;;16.40;92.20;;;;;;5071587;28;20039;-66
2022/04/22 08:40:37;;;;;;;5.97;4.97;;;16.40;91.70;;;;;;5072165;28;20048;-67
2022/04/22 08:43:04;;;;;;;5.75;4.72;;;16.50;92.20;;;;;;5068332;28;20028;-67
2022/04/22 08:45:30;;;;;;;6.38;4.30;;;16.50;92.40;;;;;;5071555;28;20047;-67
2022/04/22 08:50:42;;;;;;;8.50;5.45;;;16.30;92.40;;;;;;5072832;28;20074;-66
2022/04/22 08:53:11;;;;;;;8.93;4.65;;;16.20;92.00;;;;;;5073687;28;20040;-67
2022/04/22 08:55:39;;;;;;;8.85;5.32;;;16.30;92.70;;;;;;5072085;28;20519;-67
2022/04/22 08:58:05;;;;;;;7.05;4.80;;;16.60;92.40;;;;;;5070900;28;20067;-67
2022/04/22 09:00:35;;;;;;;7.97;5.43;;;16.70;92.50;;;;;;5071109;28;20060;-67
2022/04/22 09:03:01;;;;;;;11.30;5.63;;;16.60;92.00;;;;;;5070209;28;20059;-66
2022/04/22 09:05:27;;;;;;;7.30;5.20;;;16.40;93.30;;;;;;5070797;28;20297;-66
2022/04/22 09:07:54;;;;;;;8.63;4.82;;;16.50;92.00;;;;;;5070913;28;20040;-67
2022/04/22 09:10:20;;;;;;;7.07;5.07;;;16.10;92.30;;;;;;5071293;28;20053;-67
2022/04/22 09:12:57;;;;;;;6.28;5.13;;;16.30;92.50;;;;;;5071146;28;20050;-66
2022/04/22 09:15:31;;;;;;;10.88;6.22;;;16.70;92.00;;;;;;5071455;28;20037;-67
2022/04/22 09:18:08;;;;;;;10.15;5.30;;;16.50;91.80;;;;;;5070811;28;20032;-66
2022/04/22 09:20:35;;;;;;;10.73;5.30;;;16.60;93.10;;;;;;5070247;28;20048;-66
2022/04/22 09:23:01;;;;;;;10.13;5.40;;;16.40;92.60;;;;;;5070952;28;20174;-66
2022/04/22 09:25:28;;;;;;;7.82;6.18;;;16.30;92.20;;;;;;5071009;28;20500;-66
2022/04/22 09:28:07;;;;;;;9.73;5.35;;;16.60;92.00;;;;;;5070990;28;20068;-67
2022/04/22 09:30:33;;;;;;;10.10;5.95;;;16.40;91.90;;;;;;5070619;28;20484;-66
2022/04/22 09:32:58;;;;;;;10.02;5.35;;;16.30;91.10;;;;;;5070326;28;20043;-66
2022/04/22 09:35:26;;;;;;;15.35;5.75;;;16.40;91.60;;;;;;5070187;28;20437;-67
2022/04/22 09:43:36;;;;;;;8.43;6.00;;;17.20;91.50;;;;;;5059702;28;20043;-67
2022/04/22 09:46:03;;;;;;;7.68;5.97;;;16.80;89.80;;;;;;5069606;28;20488;-67
2022/04/22 09:48:41;;;;;;;11.23;6.53;;;17.20;91.50;;;;;;5068693;28;20028;-68
2022/04/22 09:51:30;;;;;;;10.23;5.65;;;17.60;92.50;;;;;;5067876;28;20523;-67
2022/04/22 09:54:19;;;;;;;7.00;5.70;;;17.50;92.00;;;;;;5053395;28;20060;-66
2022/04/22 09:56:58;;;;;;;8.60;6.20;;;17.00;91.40;;;;;;5050408;28;20045;-67
2022/04/22 09:59:26;;;;;;;10.85;5.97;;;16.90;90.20;;;;;;5069886;28;20071;-67
2022/04/22 10:01:52;;;;;;;8.85;5.60;;;17.00;90.40;;;;;;5056352;28;20033;-67
2022/04/22 10:04:19;;;;;;;8.10;5.82;;;17.10;90.00;;;;;;5058982;28;20093;-67
2022/04/22 10:06:46;;;;;;;10.43;5.55;;;16.80;90.90;;;;;;5070137;28;20484;-66
2022/04/22 10:09:15;;;;;;;11.13;6.32;;;17.30;92.10;;;;;;5070155;28;20028;-67
2022/04/22 10:11:43;;;;;;;13.55;8.15;;;17.10;92.10;;;;;;5059705;28;20114;-66
2022/04/22 10:14:10;;;;;;;10.45;7.03;;;17.30;90.70;;;;;;5058840;28;20291;-66
2022/04/22 10:16:36;;;;;;;12.52;7.50;;;17.30;91.80;;;;;;5059431;28;20040;-66
2022/04/22 10:19:03;;;;;;;9.85;5.72;;;17.60;91.40;;;;;;5069260;28;20075;-66
2022/04/22 10:21:29;;;;;;;9.93;6.72;;;16.90;89.90;;;;;;5069702;28;20496;-66
2022/04/22 10:23:56;;;;;;;12.63;7.30;;;17.50;91.50;;;;;;5070055;28;20044;-66
2022/04/22 10:26:23;;;;;;;25.08;15.75;;;17.60;90.70;;;;;;5069311;28;20408;-66
2022/04/22 10:28:49;;;;;;;11.70;6.97;;;17.70;91.80;;;;;;5060161;28;20609;-66
2022/04/22 10:31:15;;;;;;;13.80;9.40;;;17.90;91.10;;;;;;5069801;28;20127;-67
2022/04/22 10:33:44;;;;;;;9.82;5.70;;;18.10;91.30;;;;;;5068344;28;20036;-66
2022/04/22 10:36:17;;;;;;;9.30;5.88;;;18.30;91.30;;;;;;5060124;28;20032;-67
2022/04/22 10:38:48;;;;;;;9.25;5.55;;;18.40;90.40;;;;;;5072170;28;20043;-67
2022/04/22 10:41:22;;;;;;;15.00;5.63;;;18.30;90.30;;;;;;5071807;28;20129;-67
2022/04/22 10:49:38;;;;;;;13.55;6.38;;;17.60;90.90;;;;;;5068526;28;20047;-66
2022/04/22 10:52:17;;;;;;;11.93;5.82;;;18.20;91.70;;;;;;5054829;28;20045;-67
2022/04/22 10:54:52;;;;;;;9.77;5.93;;;18.40;91.30;;;;;;5068176;28;20040;-66
2022/04/22 10:57:20;;;;;;;9.75;6.07;;;18.80;92.60;;;;;;5051393;28;20041;-66
2022/04/22 11:00:00;;;;;;;11.43;5.97;;;18.90;89.30;;;;;;5049653;28;20044;-67
2022/04/22 11:02:33;;;;;;;10.40;6.68;;;18.20;90.40;;;;;;5054090;28;20125;-66
2022/04/22 11:07:50;;;;;;;11.98;7.13;;;18.80;90.50;;;;;;5053280;28;20029;-66
2022/04/22 11:10:21;;;;;;;32.13;20.52;;;18.90;87.50;;;;;;5053620;28;20120;-67
2022/04/22 11:12:55;;;;;;;16.92;10.60;;;18.90;90.00;;;;;;5054428;28;20045;-67
2022/04/22 11:15:42;;;;;;;9.32;6.95;;;19.20;89.60;;;;;;5054986;28;20041;-66
2022/04/22 11:18:12;;;;;;;9.40;6.80;;;18.90;88.00;;;;;;5055212;28;20041;-66
2022/04/22 11:20:39;;;;;;;11.23;5.17;;;19.60;90.20;;;;;;5052651;28;20519;-67
2022/04/22 11:23:10;;;;;;;14.30;6.47;;;19.90;90.60;;;;;;5053261;28;20809;-66
2022/04/22 11:25:36;;;;;;;19.23;6.68;;;20.00;87.10;;;;;;5052944;28;20040;-67
2022/04/22 11:28:03;;;;;;;9.90;6.45;;;19.40;88.20;;;;;;5052663;28;20040;-67
2022/04/22 11:30:32;;;;;;;6.57;5.78;;;19.30;87.50;;;;;;5053074;28;20036;-67
2022/04/22 11:33:23;;;;;;;10.70;6.85;;;19.40;88.50;;;;;;5052928;28;20035;-67
2022/04/22 11:35:53;;;;;;;7.38;5.72;;;18.90;86.80;;;;;;5052265;28;20059;-68
2022/04/22 11:38:20;;;;;;;9.55;6.35;;;18.20;91.30;;;;;;5053414;28;20150;-67
2022/04/22 11:40:50;;;;;;;11.02;6.88;;;18.80;89.30;;;;;;5052421;28;20131;-67
2022/04/22 11:43:18;;;;;;;11.65;7.30;;;18.70;90.30;;;;;;5052561;28;20099;-67
2022/04/22 11:45:46;;;;;;;12.65;7.63;;;18.90;89.30;;;;;;5052530;28;20059;-67
2022/04/22 11:48:25;;;;;;;5.32;4.82;;;18.70;88.00;;;;;;5054226;28;20029;-67
2022/04/22 11:50:53;;;;;;;10.55;6.55;;;18.90;89.90;;;;;;5052791;28;20045;-67
2022/04/22 11:53:26;;;;;;;10.30;6.30;;;18.50;87.10;;;;;;5052805;28;20188;-67
2022/04/22 11:55:52;;;;;;;9.32;6.47;;;19.50;92.10;;;;;;5054778;28;20090;-67
2022/04/22 11:58:25;;;;;;;7.60;6.03;;;19.70;88.30;;;;;;5053473;28;20045;-67
2022/04/22 12:06:21;;;;;;;8.10;5.10;;;19.80;87.30;;;;;;5052648;28;20063;-67
2022/04/22 12:08:51;;;;;;;11.15;6.30;;;19.80;90.20;;;;;;5052380;28;20068;-67
2022/04/22 12:11:17;;;;;;;11.07;5.60;;;20.20;90.20;;;;;;5051612;28;20504;-67
2022/04/22 12:13:43;;;;;;;10.38;6.57;;;20.20;87.90;;;;;;5052664;28;20274;-67
2022/04/22 12:16:09;;;;;;;8.40;6.13;;;19.70;87.20;;;;;;5052772;28;20040;-68
2022/04/22 12:18:37;;;;;;;10.80;6.20;;;19.50;86.90;;;;;;5052129;28;20040;-68
2022/04/22 12:21:05;;;;;;;10.15;6.72;;;19.70;86.70;;;;;;5051653;28;20567;-68
2022/04/22 12:23:37;;;;;;;10.70;6.38;;;19.60;85.90;;;;;;5063942;28;20135;-67
2022/04/22 12:26:03;;;;;;;8.75;6.20;;;19.60;88.50;;;;;;5064587;28;20080;-67
2022/04/22 12:28:29;;;;;;;7.75;5.80;;;19.90;90.00;;;;;;5057548;28;20035;-67
2022/04/22 12:30:55;;;;;;;5.82;4.88;;;19.80;85.20;;;;;;5054238;28;20033;-68
2022/04/22 12:33:23;;;;;;;8.15;5.50;;;19.90;85.20;;;;;;5051505;28;20040;-67
2022/04/22 12:35:49;;;;;;;10.05;5.45;;;19.90;81.70;;;;;;5053431;28;20040;-67
2022/04/22 12:38:16;;;;;;;10.95;5.55;;;19.80;87.10;;;;;;5055528;28;20044;-67
2022/04/22 12:40:47;;;;;;;7.60;5.20;;;20.10;83.10;;;;;;5071858;28;20525;-67
2022/04/22 12:43:26;;;;;;;6.88;4.28;;;20.10;84.20;;;;;;5057425;28;20028;-67
2022/04/22 12:54:20;;;;;;;6.47;4.00;;;19.90;78.00;;;;;;5067287;28;20400;-67
2022/04/22 12:56:55;;;;;;;5.57;3.97;;;20.30;80.30;;;;;;5064122;28;20048;-67
2022/04/22 12:59:21;;;;;;;7.47;4.20;;;20.70;78.30;;;;;;5051053;28;20041;-66
2022/04/22 13:01:49;;;;;;;10.02;4.70;;;21.00;83.60;;;;;;5050700;28;20064;-67
2022/04/22 13:04:23;;;;;;;7.30;4.40;;;20.50;76.90;;;;;;5052887;28;20041;-68
2022/04/22 13:06:49;;;;;;;7.45;4.57;;;20.10;78.30;;;;;;5053579;28;20037;-67
2022/04/22 13:09:17;;;;;;;5.85;4.85;;;19.90;77.80;;;;;;5064494;28;20384;-67
2022/04/22 13:11:43;;;;;;;9.77;4.78;;;19.80;78.60;;;;;;5058543;28;20080;-67
2022/04/22 13:14:11;;;;;;;6.10;4.50;;;19.80;79.40;;;;;;5070768;28;20028;-67
2022/04/22 13:16:38;;;;;;;5.68;3.83;;;19.70;79.30;;;;;;5066174;28;20040;-67
2022/04/22 13:19:03;;;;;;;6.60;4.40;;;19.60;80.80;;;;;;5057403;28;20132;-67
2022/04/22 13:21:29;;;;;;;7.55;4.78;;;19.60;80.00;;;;;;5055804;28;20483;-67
2022/04/22 13:23:56;;;;;;;9.40;5.65;;;19.90;80.40;;;;;;5049957;28;20036;-67
2022/04/22 13:26:23;;;;;;;6.93;4.60;;;20.10;87.50;;;;;;5058316;28;20051;-67
2022/04/22 13:28:49;;;;;;;9.70;4.50;;;20.20;84.00;;;;;;5069954;28;20040;-68
2022/04/22 13:31:16;;;;;;;8.07;5.25;;;20.40;82.30;;;;;;5071234;28;20070;-67
2022/04/22 13:33:42;;;;;;;7.63;4.65;;;19.80;81.20;;;;;;5058873;28;20496;-68
2022/04/22 13:36:11;;;;;;;8.18;4.38;;;20.10;86.10;;;;;;5064946;28;20040;-68
2022/04/22 13:38:37;;;;;;;7.25;5.30;;;20.30;82.20;;;;;;5053893;28;20098;-67
2022/04/22 13:41:07;;;;;;;11.07;5.22;;;20.20;82.20;;;;;;5068009;28;20098;-67
2022/04/22 13:43:33;;;;;;;9.85;5.38;;;20.30;83.70;;;;;;5068599;28;20127;-67
2022/04/22 13:54:16;;;;;;;13.00;6.72;;;19.90;83.90;;;;;;5052523;28;20526;-67
2022/04/22 13:56:42;;;;;;;15.75;6.35;;;19.80;83.10;;;;;;5052328;28;20033;-67
2022/04/22 13:59:08;;;;;;;16.73;6.15;;;19.90;81.00;;;;;;5062154;28;20053;-67
2022/04/22 14:01:34;;;;;;;13.02;6.32;;;20.20;86.60;;;;;;5057447;28;20732;-66
2022/04/22 14:03:59;;;;;;;10.10;5.90;;;19.90;83.10;;;;;;5063039;28;20032;-66
2022/04/22 14:06:25;;;;;;;9.55;5.47;;;20.00;81.30;;;;;;5068782;28;20067;-67